METAR Data
IDs: Format: Raw Decoded Include TAF

Data at: 1519 UTC 22 Apr 2021

KSPG 221453Z 07011KT 10SM CLR 21/11 A3011 RMK AO2 SLP195 T02060111 50011
KSPG 221353Z 05015KT 10SM CLR 20/12 A3011 RMK AO2 SLP195 T02000117
KSPG 221253Z 03011KT 10SM CLR 19/12 A3010 RMK AO2 SLP192 T01940117
KSPG 221153Z 03012KT 10SM CLR 19/12 A3008 RMK AO2 SLP184 T01890117 10217 20189 51019
KSPG 221053Z 03011KT 10SM CLR 19/13 A3007 RMK AO2 SLP181 T01940128
KSPG 220954Z AUTO 01011KT 10SM FEW036 20/13 A3004 RMK AO2 SLP172 T02000128
KSPG 220853Z AUTO 02014KT 10SM FEW025 SCT030 22/16 A3002 RMK AO2 SLP165 T02170156 53006 $
KSPG 220753Z AUTO 31005KT 10SM CLR 21/16 A3000 RMK AO2 SLP157 T02110161 $
KSPG 220653Z AUTO 33005KT 10SM CLR 21/16 A2999 RMK AO2 SLP156 T02110156 $
KSPG 220553Z AUTO 31006KT 10SM CLR 22/16 A3000 RMK AO2 SLP158 T02170156 10239 20211 58012 $
KSPG 220453Z AUTO 31007KT 10SM CLR 22/15 A3003 RMK AO2 SLP167 T02170150 402890217 $
KSPG 220353Z AUTO 31007KT 10SM CLR 22/15 A3004 RMK AO2 SLP171 T02220150 $
KSPG 220253Z AUTO 30004KT 10SM CLR 23/14 A3003 RMK AO2 SLP170 T02280139 53012 $
KSPG 220153Z AUTO 00000KT 10SM CLR 23/15 A3002 RMK AO2 SLP164 T02280150 $
KSPG 220053Z AUTO 31007KT 10SM CLR 23/14 A3000 RMK AO2 SLP158 T02280144 $
KSPG 212353Z 33007KT 10SM CLR 24/14 A3000 RMK AO2 SLP158 T02390144 10289 20239 51010 $
KSPG 212253Z VRB06KT 10SM CLR 24/14 A2999 RMK AO2 SLP155 T02440144 $
KSPG 212153Z 32009KT 10SM CLR 26/13 A2998 RMK AO2 SLP151 T02610133 $
KSPG 212053Z 33006KT 10SM CLR 27/12 A2997 RMK AO2 SLP148 T02720122 55010 $
KSPG 211953Z 04005KT 10SM CLR 28/12 A2997 RMK AO2 SLP147 T02830122 $
KSPG 211853Z VRB04KT 10SM CLR 27/11 A2998 RMK AO2 SLP150 T02720111 $
KSPG 211847Z 34007KT 310V010 10SM CLR 28/12 A2998 RMK AO2 $
KSPG 211845Z 01007KT 1SM HZ 28/12 A2998 RMK AO2 T02780122 $
KSPG 211753Z 35006KT 10SM CLR 27/14 A3000 RMK AO2 SLP158 T02670139 10272 20222 58005
KSPG 211653Z 00000KT 10SM CLR 27/14 A3001 RMK AO2 SLP161 T02670144
KSPG 211553Z 34005KT 10SM SCT070 26/17 A3002 RMK AO2 SLP164 T02560172
KSPG 211453Z 03007KT 10SM FEW026 OVC065 24/19 A3001 RMK AO2 SLP163 T02390189 53012
KSPG 211353Z 01010KT 10SM OVC060 23/18 A2999 RMK AO2 SLP156 T02330178
KSPG 211253Z 35007KT 10SM OVC060 22/18 A2999 RMK AO2 SLP155 T02220178
KSPG 211153Z 34005KT 10SM CLR 22/18 A2998 RMK AO2 SLP150 70001 T02220183 10239 20217 53011
KSPG 211053Z 32005KT 10SM CLR 22/19 A2997 RMK AO2 SLP147 T02170189
KSPG 210956Z AUTO 30005KT 10SM CLR 22/19 A2995 RMK AO2 SLP143 T02220189
KSPG 210853Z AUTO 30004KT 10SM FEW014 SCT022 23/19 A2995 RMK AO2 SLP140 T02330194 55000
KSPG 210753Z AUTO 30005KT 10SM OVC023 23/21 A2994 RMK AO2 SLP138 T02330206
KSPG 210653Z AUTO 26006KT 10SM OVC017 23/21 A2993 RMK AO2 SLP135 T02330211
KSPG 210553Z AUTO 26005KT 10SM OVC021 24/21 A2995 RMK AO2 SLP140 T02390206 10244 20233 50001
KSPG 210453Z AUTO 33004KT 10SM BKN016 24/21 A2995 RMK AO2 SLP141 T02390206 402560217
KSPG 210430Z AUTO 32005KT 10SM SCT020 24/21 A2995 RMK AO2 T02390206
KSPG 210353Z AUTO 26004KT 10SM OVC020 24/21 A2995 RMK AO2 SLP141 T02390206